createdAt,value
2019-05-09T00:00:43.926Z,75.49
2019-05-09T00:02:46.079Z,75.93
2019-05-09T00:04:48.118Z,76.29
2019-05-09T00:06:50.565Z,76.07
2019-05-09T00:08:53.371Z,76.17
2019-05-09T00:10:55.486Z,76.43
2019-05-09T00:12:57.601Z,76.16
2019-05-09T00:15:00.587Z,76.39
2019-05-09T00:17:03.661Z,76.52
2019-05-09T00:19:06.188Z,76.42
2019-05-09T00:21:13.419Z,76.21
2019-05-09T00:23:15.636Z,76.06
2019-05-09T00:25:17.905Z,75.82
2019-05-09T00:27:19.902Z,75.81
2019-05-09T00:29:34.332Z,75.54
2019-05-09T00:31:53.989Z,75.58
2019-05-09T00:33:58.663Z,75.52
2019-05-09T00:36:00.732Z,75.47
2019-05-09T00:38:07.435Z,75.63
2019-05-09T00:40:09.771Z,75.65
2019-05-09T00:42:13.723Z,75.66
2019-05-09T00:44:23.275Z,75.83
2019-05-09T00:46:43.059Z,75.83
2019-05-09T00:48:57.815Z,75.77
2019-05-09T00:51:03.275Z,75.79
2019-05-09T00:53:04.984Z,75.58
2019-05-09T00:55:07.049Z,75.86
2019-05-09T00:57:13.647Z,75.83
2019-05-09T00:59:15.556Z,76.21
2019-05-09T01:01:17.991Z,76.27
2019-05-09T01:03:19.898Z,76.05
2019-05-09T01:05:23.935Z,76.41
2019-05-09T01:07:26.150Z,76.60
2019-05-09T01:09:28.439Z,76.22
2019-05-09T01:11:30.707Z,76.03
2019-05-09T01:13:34.139Z,76.27
2019-05-09T01:15:37.099Z,76.16
2019-05-09T01:17:38.806Z,76.39
2019-05-09T01:19:43.230Z,76.61
2019-05-09T01:21:45.698Z,76.54
2019-05-09T01:23:47.753Z,76.54
2019-05-09T01:25:49.765Z,77.19
2019-05-09T01:27:53.830Z,77.16
2019-05-09T01:29:56.404Z,76.89
2019-05-09T01:32:00.815Z,76.90
2019-05-09T01:34:16.598Z,77.27
2019-05-09T01:36:18.836Z,77.44
2019-05-09T01:38:23.240Z,77.28
2019-05-09T01:40:25.655Z,77.38
2019-05-09T01:42:27.850Z,77.42
2019-05-09T01:44:29.879Z,77.68
2019-05-09T01:46:33.921Z,77.68
2019-05-09T01:48:35.878Z,77.96
2019-05-09T01:50:37.893Z,78.11
2019-05-09T01:52:40.071Z,78.35
2019-05-09T01:54:43.636Z,78.36
2019-05-09T01:56:45.686Z,78.11
2019-05-09T01:58:47.793Z,78.29
2019-05-09T02:00:49.962Z,78.44
2019-05-09T02:02:54.003Z,78.40
2019-05-09T02:04:56.325Z,78.32
2019-05-09T02:06:58.136Z,78.31
2019-05-09T02:09:03.404Z,78.30
2019-05-09T02:11:05.393Z,78.76
2019-05-09T02:13:08.509Z,79.19
2019-05-09T02:15:19.895Z,79.21
2019-05-09T02:17:58.109Z,79.11
2019-05-09T02:19:48.277Z,79.11
2019-05-09T02:21:50.550Z,79.25
2019-05-09T02:23:53.709Z,79.36
2019-05-09T02:25:55.773Z,79.71
2019-05-09T02:27:57.836Z,79.76
2019-05-09T02:30:00.241Z,79.96
2019-05-09T02:32:04.678Z,80.05
2019-05-09T02:34:06.252Z,79.91
2019-05-09T02:36:09.771Z,79.92
2019-05-09T02:38:12.086Z,80.43
2019-05-09T02:40:14.441Z,80.35
2019-05-09T02:42:19.665Z,80.23
2019-05-09T02:44:20.675Z,80.50
2019-05-09T02:46:38.321Z,80.59
2019-05-09T02:48:39.787Z,80.46
2019-05-09T02:50:41.998Z,80.60
2019-05-09T02:52:44.013Z,80.53
2019-05-09T02:54:49.682Z,80.55
2019-05-09T02:56:50.140Z,80.55
2019-05-09T02:59:04.380Z,80.19
2019-05-09T03:01:18.893Z,80.34
2019-05-09T03:03:29.037Z,80.46
2019-05-09T03:05:30.572Z,80.77
2019-05-09T03:07:52.009Z,80.47
2019-05-09T03:09:53.986Z,80.57
2019-05-09T03:11:58.995Z,80.82
2019-05-09T03:14:00.439Z,80.78
2019-05-09T03:16:09.267Z,80.21
2019-05-09T03:18:11.288Z,80.42
2019-05-09T03:20:33.973Z,80.78
2019-05-09T03:22:39.279Z,80.45
2019-05-09T03:24:40.199Z,80.73
2019-05-09T03:26:45.064Z,80.54
2019-05-09T03:29:08.813Z,80.04
2019-05-09T03:31:13.578Z,80.26
2019-05-09T03:33:19.792Z,80.24
2019-05-09T03:35:20.251Z,80.50
2019-05-09T03:37:21.833Z,80.06
2019-05-09T03:39:24.063Z,80.15
2019-05-09T03:41:28.221Z,80.27
2019-05-09T03:43:30.116Z,80.55
2019-05-09T03:45:34.240Z,80.40
2019-05-09T03:47:47.741Z,80.16
2019-05-09T03:50:10.327Z,80.20
2019-05-09T03:52:12.586Z,80.59
2019-05-09T03:54:14.782Z,80.42
2019-05-09T03:56:20.359Z,80.53
2019-05-09T03:58:22.768Z,80.26
2019-05-09T04:00:24.491Z,80.18
2019-05-09T04:02:28.174Z,80.25
2019-05-09T04:04:30.624Z,80.37
2019-05-09T04:06:33.253Z,80.43
2019-05-09T04:08:37.477Z,80.68
2019-05-09T04:10:39.848Z,80.56
2019-05-09T04:12:53.891Z,80.21
2019-05-09T04:14:47.967Z,80.63
2019-05-09T04:16:50.229Z,80.50
2019-05-09T04:18:52.263Z,80.17
2019-05-09T04:20:54.344Z,80.23
2019-05-09T04:22:59.369Z,79.99
2019-05-09T04:25:00.939Z,80.24
2019-05-09T04:27:29.865Z,80.06
2019-05-09T04:29:32.705Z,79.91
2019-05-09T04:31:34.388Z,79.64
2019-05-09T04:33:38.329Z,79.58
2019-05-09T04:35:40.533Z,79.40
2019-05-09T04:37:42.737Z,79.49
2019-05-09T04:39:44.731Z,79.26
2019-05-09T04:41:48.797Z,79.16
2019-05-09T04:43:50.915Z,79.59
2019-05-09T04:45:58.062Z,79.41
2019-05-09T04:48:00.582Z,79.25
2019-05-09T04:50:02.424Z,79.37
2019-05-09T04:52:04.510Z,79.54
2019-05-09T04:54:07.353Z,79.18
2019-05-09T04:56:18.152Z,79.23
2019-05-09T04:58:20.192Z,79.36
2019-05-09T05:00:29.835Z,79.06
2019-05-09T05:02:40.157Z,79.25
2019-05-09T05:04:42.526Z,79.04
2019-05-09T05:06:44.952Z,79.09
2019-05-09T05:08:47.906Z,78.89
2019-05-09T05:10:50.311Z,78.99
2019-05-09T05:12:52.946Z,78.74
2019-05-09T05:14:54.966Z,78.67
2019-05-09T05:17:06.305Z,78.69
2019-05-09T05:19:01.531Z,78.48
2019-05-09T05:21:03.584Z,78.47
2019-05-09T05:23:18.305Z,78.00
2019-05-09T05:25:20.822Z,77.92
2019-05-09T05:27:22.510Z,78.45
2019-05-09T05:29:24.525Z,77.81
2019-05-09T05:31:28.562Z,77.68
2019-05-09T05:33:43.209Z,77.84
2019-05-09T05:35:57.421Z,77.59
2019-05-09T05:37:59.692Z,77.42
2019-05-09T05:40:01.715Z,77.04
2019-05-09T05:42:03.834Z,77.30
2019-05-09T05:44:08.527Z,77.00
2019-05-09T05:46:58.679Z,76.89
2019-05-09T05:49:00.780Z,77.08
2019-05-09T05:51:03.079Z,76.68
2019-05-09T05:53:05.075Z,76.08
2019-05-09T05:55:07.643Z,76.22
2019-05-09T05:57:11.627Z,76.08
2019-05-09T05:59:13.998Z,75.57
2019-05-09T06:01:18.490Z,75.89
2019-05-09T06:03:20.461Z,74.59
2019-05-09T06:05:22.077Z,75.04
2019-05-09T06:07:24.414Z,74.14
2019-05-09T06:09:28.098Z,74.37
2019-05-09T06:11:30.671Z,73.19
2019-05-09T06:13:32.702Z,73.19
2019-05-09T06:15:35.085Z,73.54
2019-05-09T06:17:38.039Z,73.32
2019-05-09T06:19:40.596Z,72.71
2019-05-09T06:21:42.467Z,72.72
2019-05-09T06:23:44.458Z,72.31
2019-05-09T06:25:48.504Z,72.54
2019-05-09T06:27:51.075Z,71.77
2019-05-09T06:29:53.114Z,71.11
2019-05-09T06:31:55.218Z,71.94
2019-05-09T06:33:58.068Z,72.08
2019-05-09T06:36:02.527Z,71.70
2019-05-09T06:38:08.014Z,71.11
2019-05-09T06:40:17.309Z,71.72
2019-05-09T06:42:19.604Z,69.33
2019-05-09T06:44:33.386Z,69.59
2019-05-09T06:46:42.082Z,69.76
2019-05-09T06:48:44.114Z,69.74
2019-05-09T06:50:48.225Z,70.48
2019-05-09T06:52:50.609Z,69.65
2019-05-09T06:54:52.608Z,69.91
2019-05-09T06:56:54.679Z,69.52
2019-05-09T06:58:58.828Z,69.02
2019-05-09T07:01:29.825Z,69.68
2019-05-09T07:03:31.840Z,69.72
2019-05-09T07:05:52.431Z,68.24
2019-05-09T07:08:01.981Z,68.87
2019-05-09T07:10:04.604Z,68.93
2019-05-09T07:12:07.943Z,68.30
2019-05-09T07:14:31.914Z,68.65
2019-05-09T07:16:31.377Z,68.12
2019-05-09T07:18:33.581Z,67.89
2019-05-09T07:20:37.703Z,67.71
2019-05-09T07:22:59.167Z,67.66
2019-05-09T07:25:09.870Z,67.70
2019-05-09T07:27:09.361Z,67.32
2019-05-09T07:29:11.540Z,67.21
2019-05-09T07:31:37.952Z,67.62
2019-05-09T07:34:00.015Z,66.69
2019-05-09T07:36:02.167Z,66.40
2019-05-09T07:38:04.649Z,65.81
2019-05-09T07:40:08.394Z,66.55
2019-05-09T07:42:10.618Z,67.06
2019-05-09T07:44:12.872Z,66.63
2019-05-09T07:46:28.064Z,65.73
2019-05-09T07:48:29.729Z,65.29
2019-05-09T07:50:32.885Z,65.11
2019-05-09T07:52:34.918Z,65.04
2019-05-09T07:54:37.725Z,65.31
2019-05-09T07:56:40.175Z,65.47
2019-05-09T07:58:42.179Z,65.94
2019-05-09T08:00:44.170Z,65.31
2019-05-09T08:02:47.690Z,66.17
2019-05-09T08:04:49.903Z,66.21
2019-05-09T08:06:52.109Z,65.45
2019-05-09T08:08:54.622Z,65.27
2019-05-09T08:10:58.466Z,64.65
2019-05-09T08:13:00.366Z,65.44
2019-05-09T08:15:13.740Z,64.45
2019-05-09T08:17:08.560Z,64.62
2019-05-09T08:19:10.716Z,63.44
2019-05-09T08:21:13.224Z,61.67
2019-05-09T08:23:14.917Z,61.90
2019-05-09T08:25:18.355Z,61.32
2019-05-09T08:27:20.631Z,60.58
2019-05-09T08:29:22.668Z,61.09
2019-05-09T08:31:24.679Z,59.87
2019-05-09T08:33:30.325Z,60.78
2019-05-09T08:35:32.348Z,60.54
2019-05-09T08:37:34.487Z,59.65
2019-05-09T08:39:38.253Z,58.46
2019-05-09T08:41:40.532Z,59.01
2019-05-09T08:43:42.548Z,59.95
2019-05-09T08:45:48.340Z,58.88
2019-05-09T08:47:49.856Z,59.10
2019-05-09T08:50:07.837Z,59.76
2019-05-09T08:52:16.096Z,57.28
2019-05-09T08:54:34.371Z,56.93
2019-05-09T08:56:38.726Z,55.80
2019-05-09T08:58:41.098Z,54.48
2019-05-09T09:00:45.876Z,54.72
2019-05-09T09:02:49.059Z,55.03
2019-05-09T09:04:51.370Z,54.64
2019-05-09T09:06:53.441Z,53.46
2019-05-09T09:08:57.552Z,54.15
2019-05-09T09:10:59.603Z,53.59
2019-05-09T09:13:01.635Z,53.64
2019-05-09T09:15:07.747Z,54.36
2019-05-09T09:17:10.095Z,53.42
2019-05-09T09:19:12.339Z,54.44
2019-05-09T09:21:14.522Z,54.74
2019-05-09T09:23:18.085Z,54.60
2019-05-09T09:25:20.396Z,54.45
2019-05-09T09:27:22.401Z,53.58
2019-05-09T09:29:24.726Z,53.93
2019-05-09T09:31:28.556Z,52.01
2019-05-09T09:33:30.646Z,52.15
2019-05-09T09:35:32.964Z,53.89
2019-05-09T09:37:47.893Z,53.88
2019-05-09T09:39:44.582Z,54.73
2019-05-09T09:41:43.264Z,56.02
2019-05-09T09:43:47.460Z,57.00
2019-05-09T09:46:05.852Z,57.11
2019-05-09T09:47:53.508Z,55.59
2019-05-09T09:49:58.386Z,51.11
2019-05-09T09:51:59.472Z,51.11
2019-05-09T09:54:02.056Z,51.24
2019-05-09T09:56:04.194Z,51.97
2019-05-09T09:58:08.180Z,51.53
2019-05-09T10:00:33.420Z,53.51
2019-05-09T10:02:37.828Z,55.23
2019-05-09T10:04:40.738Z,56.78
2019-05-09T10:06:43.487Z,58.29
2019-05-09T10:08:45.520Z,59.61
2019-05-09T10:10:48.562Z,61.00
2019-05-09T10:12:50.927Z,59.80
2019-05-09T10:14:59.600Z,59.64
2019-05-09T10:17:11.078Z,61.00
2019-05-09T10:19:28.282Z,61.32
2019-05-09T10:21:33.884Z,62.01
2019-05-09T10:23:37.872Z,62.88
2019-05-09T10:25:40.047Z,63.31
2019-05-09T10:27:42.895Z,62.77
2019-05-09T10:29:45.049Z,60.83
2019-05-09T10:31:48.750Z,58.77
2019-05-09T10:33:51.141Z,57.23
2019-05-09T10:35:53.149Z,58.24
2019-05-09T10:37:55.591Z,59.82
2019-05-09T10:39:58.253Z,58.18
2019-05-09T10:42:02.414Z,56.89
2019-05-09T10:44:11.587Z,56.65
2019-05-09T10:46:52.544Z,56.21
2019-05-09T10:48:51.633Z,56.66
2019-05-09T10:50:54.838Z,54.96
2019-05-09T10:52:58.526Z,57.19
2019-05-09T10:55:00.774Z,56.68
2019-05-09T10:57:03.076Z,56.17
2019-05-09T10:59:07.581Z,57.12
2019-05-09T11:01:09.313Z,57.38
2019-05-09T11:03:11.744Z,56.96
2019-05-09T11:05:13.990Z,57.23
2019-05-09T11:07:18.170Z,57.71
2019-05-09T11:09:20.287Z,58.14
2019-05-09T11:11:22.559Z,57.36
2019-05-09T11:13:24.663Z,56.98
2019-05-09T11:15:27.310Z,58.63
2019-05-09T11:17:29.613Z,58.75
2019-05-09T11:19:31.594Z,59.37
2019-05-09T11:21:33.677Z,59.45
2019-05-09T11:23:35.878Z,58.55
2019-05-09T11:25:38.165Z,57.42
2019-05-09T11:27:40.139Z,57.78
2019-05-09T11:29:42.373Z,57.63
2019-05-09T11:31:44.413Z,56.43
2019-05-09T11:33:48.376Z,57.55
2019-05-09T11:35:50.787Z,57.44
2019-05-09T11:37:52.805Z,57.81
2019-05-09T11:39:55.176Z,58.10
2019-05-09T11:41:58.543Z,58.35
2019-05-09T11:44:00.863Z,59.10
2019-05-09T11:46:03.408Z,59.77
2019-05-09T11:48:07.936Z,59.87
2019-05-09T11:50:09.421Z,58.47
2019-05-09T11:52:11.884Z,58.40
2019-05-09T11:54:16.392Z,57.50
2019-05-09T11:56:17.923Z,57.55
2019-05-09T11:58:20.625Z,58.10
2019-05-09T12:00:22.629Z,58.69
2019-05-09T12:02:25.026Z,58.25
2019-05-09T12:04:28.123Z,58.84
2019-05-09T12:06:31.523Z,58.99
2019-05-09T12:08:33.583Z,58.07
2019-05-09T12:10:38.237Z,59.11
2019-05-09T12:12:40.175Z,58.47
2019-05-09T12:14:42.289Z,58.69
2019-05-09T12:16:44.622Z,58.42
2019-05-09T12:18:48.816Z,58.71
2019-05-09T12:20:50.956Z,59.26
2019-05-09T12:22:53.192Z,58.29
2019-05-09T12:24:55.199Z,59.00
2019-05-09T12:26:57.996Z,59.68
2019-05-09T12:29:01.606Z,58.63
2019-05-09T12:31:04.690Z,57.90
2019-05-09T12:33:08.654Z,58.85
2019-05-09T12:35:10.609Z,58.85
2019-05-09T12:37:12.820Z,58.70
2019-05-09T12:39:15.257Z,57.77
2019-05-09T12:41:18.988Z,58.44
2019-05-09T12:43:21.366Z,57.94
2019-05-09T12:45:23.477Z,58.39
2019-05-09T12:47:28.858Z,57.80
2019-05-09T12:49:29.613Z,55.87
2019-05-09T12:51:31.654Z,57.64
2019-05-09T12:53:33.908Z,58.25
2019-05-09T12:55:38.303Z,59.79
2019-05-09T12:57:39.963Z,61.66
2019-05-09T12:59:48.942Z,61.65
2019-05-09T13:01:49.216Z,62.23
2019-05-09T13:03:51.416Z,62.29
2019-05-09T13:05:54.067Z,62.32
2019-05-09T13:07:57.731Z,62.05
2019-05-09T13:09:59.958Z,59.74
2019-05-09T13:12:01.968Z,59.12
2019-05-09T13:14:04.039Z,61.03
2019-05-09T13:16:43.428Z,61.55
2019-05-09T13:18:53.861Z,60.70
2019-05-09T13:20:58.046Z,61.21
2019-05-09T13:22:59.966Z,62.34
2019-05-09T13:25:03.663Z,62.26
2019-05-09T13:27:07.888Z,62.65
2019-05-09T13:29:09.724Z,62.72
2019-05-09T13:31:12.912Z,63.58
2019-05-09T13:33:18.887Z,62.22
2019-05-09T13:35:21.046Z,62.30
2019-05-09T13:37:23.476Z,63.21
2019-05-09T13:39:28.225Z,63.36
2019-05-09T13:41:30.589Z,63.52
2019-05-09T13:43:32.829Z,62.81
2019-05-09T13:45:34.934Z,62.65
2019-05-09T13:47:37.985Z,61.96
2019-05-09T13:49:40.351Z,61.60
2019-05-09T13:51:51.692Z,61.62
2019-05-09T13:53:48.426Z,62.21
2019-05-09T13:55:51.168Z,61.71
2019-05-09T13:57:53.236Z,61.65
2019-05-09T13:59:55.449Z,61.20
2019-05-09T14:01:58.141Z,61.06
2019-05-09T14:04:00.294Z,61.30
2019-05-09T14:06:02.448Z,59.76
2019-05-09T14:08:04.880Z,59.85
2019-05-09T14:10:08.987Z,59.87
2019-05-09T14:12:10.802Z,60.28
2019-05-09T14:14:12.972Z,61.03
2019-05-09T14:16:21.836Z,61.48
2019-05-09T14:18:20.259Z,62.18
2019-05-09T14:20:22.442Z,64.09
2019-05-09T14:22:24.598Z,64.37
2019-05-09T14:24:27.893Z,64.45
2019-05-09T14:26:30.287Z,64.32
2019-05-09T14:28:32.523Z,63.95
2019-05-09T14:30:34.595Z,64.65
2019-05-09T14:32:39.814Z,65.79
2019-05-09T14:34:42.640Z,65.91
2019-05-09T14:36:46.151Z,67.02
2019-05-09T14:38:49.395Z,66.72
2019-05-09T14:40:51.219Z,66.69
2019-05-09T14:42:53.448Z,66.45
2019-05-09T14:44:55.742Z,65.45
2019-05-09T14:46:58.368Z,65.38
2019-05-09T14:49:00.731Z,65.05
2019-05-09T14:51:03.006Z,63.07
2019-05-09T14:53:05.001Z,62.29
2019-05-09T14:55:08.277Z,63.23
2019-05-09T14:57:10.816Z,63.58
2019-05-09T14:59:12.892Z,63.64
2019-05-09T15:01:15.107Z,62.63
2019-05-09T15:03:18.952Z,62.63
2019-05-09T15:05:21.019Z,63.08
2019-05-09T15:07:23.283Z,63.44
2019-05-09T15:09:25.546Z,63.58
2019-05-09T15:11:28.416Z,63.81
2019-05-09T15:13:30.638Z,63.56
2019-05-09T15:15:33.137Z,63.57
2019-05-09T15:17:34.949Z,63.89
2019-05-09T15:19:38.575Z,64.20
2019-05-09T15:21:41.202Z,64.25
2019-05-09T15:23:42.960Z,64.60
2019-05-09T15:25:45.031Z,64.38
2019-05-09T15:27:47.748Z,64.09
2019-05-09T15:29:49.943Z,63.47
2019-05-09T15:31:55.149Z,64.48
2019-05-09T15:33:57.350Z,64.38
2019-05-09T15:35:59.356Z,64.08
2019-05-09T15:38:01.464Z,64.60
2019-05-09T15:40:03.956Z,63.45
2019-05-09T15:42:07.436Z,63.17
2019-05-09T15:44:09.460Z,63.68
2019-05-09T15:46:38.395Z,64.19
2019-05-09T15:48:40.980Z,65.00
2019-05-09T15:50:42.966Z,64.52
2019-05-09T15:52:45.301Z,63.33
2019-05-09T15:54:48.459Z,63.74
2019-05-09T15:56:50.572Z,64.34
2019-05-09T15:58:53.640Z,65.22
2019-05-09T16:00:55.674Z,64.95
2019-05-09T16:02:59.001Z,62.60
2019-05-09T16:05:01.604Z,61.94
2019-05-09T16:07:03.448Z,62.99
2019-05-09T16:09:09.281Z,62.90
2019-05-09T16:11:10.319Z,63.04
2019-05-09T16:13:12.060Z,61.94
2019-05-09T16:15:14.122Z,63.03
2019-05-09T16:17:19.111Z,63.83
2019-05-09T16:19:20.788Z,62.88
2019-05-09T16:21:22.891Z,63.05
2019-05-09T16:23:25.447Z,62.93
2019-05-09T16:25:28.335Z,63.55
2019-05-09T16:27:30.568Z,64.43
2019-05-09T16:29:33.065Z,64.73
2019-05-09T16:31:34.720Z,64.13
2019-05-09T16:33:37.071Z,63.00
2019-05-09T16:35:39.012Z,63.18
2019-05-09T16:38:01.391Z,63.16
2019-05-09T16:39:47.597Z,63.24
2019-05-09T16:41:50.351Z,62.71
2019-05-09T16:43:52.356Z,61.95
2019-05-09T16:45:54.423Z,62.26
2019-05-09T16:47:57.562Z,64.26
2019-05-09T16:49:59.645Z,65.35
2019-05-09T16:52:01.789Z,64.68
2019-05-09T16:54:04.186Z,65.42
2019-05-09T16:56:08.082Z,65.26
2019-05-09T16:58:09.851Z,65.33
2019-05-09T17:00:18.212Z,64.63
2019-05-09T17:02:24.859Z,64.46
2019-05-09T17:04:24.413Z,64.56
2019-05-09T17:06:27.451Z,66.10
2019-05-09T17:08:29.612Z,65.69
2019-05-09T17:10:31.865Z,65.09
2019-05-09T17:12:34.006Z,65.35
2019-05-09T17:14:36.126Z,65.98
2019-05-09T17:16:38.280Z,66.38
2019-05-09T17:18:41.074Z,67.08
2019-05-09T17:20:53.677Z,66.66
2019-05-09T17:23:14.814Z,66.06
2019-05-09T17:25:15.233Z,66.97
2019-05-09T17:27:18.856Z,68.09
2019-05-09T17:29:21.106Z,67.97
2019-05-09T17:31:23.297Z,67.96
2019-05-09T17:33:28.453Z,68.10
2019-05-09T17:35:29.732Z,68.00
2019-05-09T17:37:32.021Z,67.96
2019-05-09T17:39:34.188Z,68.21
2019-05-09T17:41:37.937Z,68.00
2019-05-09T17:43:40.553Z,67.69
2019-05-09T17:45:42.400Z,68.17
2019-05-09T17:47:44.642Z,69.51
2019-05-09T17:49:48.233Z,69.91
2019-05-09T17:51:50.499Z,69.59
2019-05-09T17:53:52.523Z,69.84
2019-05-09T17:55:54.781Z,69.80
2019-05-09T17:57:58.651Z,71.01
2019-05-09T18:00:01.112Z,71.18
2019-05-09T18:02:03.549Z,71.12
2019-05-09T18:04:05.548Z,71.38
2019-05-09T18:06:08.398Z,71.53
2019-05-09T18:08:10.727Z,71.94
2019-05-09T18:10:13.826Z,72.56
2019-05-09T18:12:15.668Z,72.80
2019-05-09T18:14:18.486Z,72.81
2019-05-09T18:16:21.164Z,72.54
2019-05-09T18:18:23.308Z,72.33
2019-05-09T18:20:28.236Z,72.52
2019-05-09T18:22:29.711Z,72.21
2019-05-09T18:24:31.809Z,72.69
2019-05-09T18:26:34.007Z,73.23
2019-05-09T18:28:38.394Z,72.83
2019-05-09T18:30:41.835Z,73.18
2019-05-09T18:33:03.484Z,72.73
2019-05-09T18:35:17.276Z,72.85
2019-05-09T18:37:19.369Z,72.90
2019-05-09T18:39:22.399Z,73.02
2019-05-09T18:41:24.775Z,72.75
2019-05-09T18:43:27.568Z,72.72
2019-05-09T18:45:30.178Z,73.03
2019-05-09T18:47:32.427Z,72.82
2019-05-09T18:49:34.600Z,72.81
2019-05-09T18:51:37.035Z,72.74
2019-05-09T18:53:38.784Z,72.86
2019-05-09T18:55:41.382Z,73.35
2019-05-09T18:57:43.960Z,73.40
2019-05-09T18:59:46.275Z,73.35
2019-05-09T19:01:49.479Z,73.39
2019-05-09T19:03:52.090Z,73.32
2019-05-09T19:05:54.002Z,73.05
2019-05-09T19:07:56.367Z,73.64
2019-05-09T19:09:58.765Z,73.57
2019-05-09T19:12:00.764Z,74.31
2019-05-09T19:14:04.708Z,74.41
2019-05-09T19:16:27.304Z,74.79
2019-05-09T19:18:51.278Z,75.21
2019-05-09T19:20:57.895Z,75.50
2019-05-09T19:23:00.401Z,75.53
2019-05-09T19:25:02.119Z,75.61
2019-05-09T19:27:04.362Z,75.22
2019-05-09T19:29:08.258Z,74.71
2019-05-09T19:31:11.282Z,73.95
2019-05-09T19:33:13.290Z,74.61
2019-05-09T19:35:15.630Z,74.33
2019-05-09T19:37:17.682Z,73.50
2019-05-09T19:39:20.118Z,73.06
2019-05-09T19:41:22.427Z,72.82
2019-05-09T19:43:24.599Z,73.27
2019-05-09T19:45:26.741Z,73.46
2019-05-09T19:47:29.917Z,73.44
2019-05-09T19:49:32.005Z,73.38
2019-05-09T19:51:34.462Z,73.11
2019-05-09T19:53:36.268Z,73.48
2019-05-09T19:55:38.354Z,73.47
2019-05-09T19:57:40.493Z,73.18
2019-05-09T19:59:42.682Z,72.98
2019-05-09T20:01:44.697Z,73.20
2019-05-09T20:03:46.816Z,73.65
2019-05-09T20:05:49.120Z,73.45
2019-05-09T20:07:50.933Z,73.17
2019-05-09T20:09:59.806Z,72.92
2019-05-09T20:12:27.895Z,73.88
2019-05-09T20:14:33.199Z,74.10
2019-05-09T20:16:37.607Z,74.17
2019-05-09T20:18:40.023Z,74.33
2019-05-09T20:20:42.033Z,74.62
2019-05-09T20:22:52.870Z,74.91
2019-05-09T20:24:52.162Z,75.12
2019-05-09T20:26:54.436Z,75.47
2019-05-09T20:28:56.799Z,75.57
2019-05-09T20:30:59.373Z,75.90
2019-05-09T20:33:00.974Z,75.90
2019-05-09T20:35:03.508Z,76.40
2019-05-09T20:37:05.498Z,76.26
2019-05-09T20:39:07.986Z,76.24
2019-05-09T20:41:10.427Z,76.65
2019-05-09T20:43:12.829Z,76.49
2019-05-09T20:45:14.649Z,76.40
2019-05-09T20:47:17.134Z,76.88
2019-05-09T20:49:19.547Z,77.94
2019-05-09T20:51:21.373Z,79.65
2019-05-09T20:53:23.441Z,81.03
2019-05-09T20:55:25.721Z,82.80
2019-05-09T20:57:27.896Z,83.48
2019-05-09T20:59:30.004Z,83.91
2019-05-09T21:01:32.429Z,83.57
2019-05-09T21:03:34.576Z,83.95
2019-05-09T21:05:36.710Z,84.57
2019-05-09T21:07:39.002Z,84.17
2019-05-09T21:09:41.056Z,83.69
2019-05-09T21:11:44.235Z,84.15
2019-05-09T21:13:48.776Z,85.19
2019-05-09T21:15:50.780Z,84.71
2019-05-09T21:17:52.927Z,84.74
2019-05-09T21:19:55.485Z,85.22
2019-05-09T21:21:57.684Z,85.73
2019-05-09T21:23:59.691Z,85.80
2019-05-09T21:26:02.382Z,85.59
2019-05-09T21:28:04.439Z,85.65
2019-05-09T21:30:07.967Z,86.18
2019-05-09T21:32:10.309Z,86.19
2019-05-09T21:34:12.507Z,86.11
2019-05-09T21:36:14.404Z,85.92
2019-05-09T21:40:17.732Z,86.15
2019-05-09T21:42:20.033Z,86.12
2019-05-09T21:44:22.114Z,86.44
2019-05-09T21:46:24.366Z,86.45
2019-05-09T21:48:26.409Z,86.72
2019-05-09T21:50:28.473Z,86.22
2019-05-09T21:52:31.442Z,87.02
2019-05-09T21:54:33.497Z,86.71
2019-05-09T21:56:35.612Z,85.28
2019-05-09T21:58:38.030Z,85.70
2019-05-09T22:00:40.771Z,85.32
2019-05-09T22:02:43.160Z,85.13
2019-05-09T22:04:45.762Z,86.07
2019-05-09T22:06:47.425Z,84.19
2019-05-09T22:08:49.382Z,84.84
2019-05-09T22:10:51.721Z,84.83
2019-05-09T22:12:53.737Z,85.00
2019-05-09T22:14:55.774Z,83.51
2019-05-09T22:17:00.169Z,83.77
2019-05-09T22:19:02.421Z,83.66
2019-05-09T22:21:05.097Z,84.99
2019-05-09T22:23:07.796Z,85.93
2019-05-09T22:25:09.609Z,85.26
2019-05-09T22:27:11.979Z,85.48
2019-05-09T22:29:14.173Z,85.91
2019-05-09T22:31:16.188Z,86.08
2019-05-09T22:33:18.190Z,85.94
2019-05-09T22:35:20.480Z,85.84
2019-05-09T22:37:22.300Z,86.16
2019-05-09T22:39:24.278Z,86.06
2019-05-09T22:41:26.647Z,85.61
2019-05-09T22:43:28.329Z,84.84
2019-05-09T22:45:30.311Z,84.75
2019-05-09T22:47:32.636Z,85.35
2019-05-09T22:49:34.630Z,85.04
2019-05-09T22:51:36.988Z,85.20
2019-05-09T22:53:39.432Z,85.46
2019-05-09T22:55:41.153Z,84.68
2019-05-09T22:57:43.168Z,84.52
2019-05-09T22:59:45.415Z,85.09
2019-05-09T23:01:47.511Z,84.26
2019-05-09T23:03:49.746Z,83.91
2019-05-09T23:05:51.915Z,84.48
2019-05-09T23:07:54.117Z,85.32
2019-05-09T23:09:56.115Z,83.70
2019-05-09T23:11:58.247Z,84.24
2019-05-09T23:14:00.300Z,83.14
2019-05-09T23:16:02.320Z,83.19
2019-05-09T23:18:04.494Z,83.97
2019-05-09T23:20:09.085Z,83.59
2019-05-09T23:22:11.245Z,83.82
2019-05-09T23:24:28.016Z,84.59
2019-05-09T23:26:21.135Z,84.50
2019-05-09T23:28:23.752Z,84.33
2019-05-09T23:30:26.279Z,83.42
2019-05-09T23:32:37.439Z,83.63
2019-05-09T23:34:39.448Z,83.93
2019-05-09T23:36:41.690Z,83.56
2019-05-09T23:39:01.848Z,83.49
2019-05-09T23:41:05.271Z,83.07
2019-05-09T23:43:07.529Z,83.61
2019-05-09T23:45:09.680Z,82.26
2019-05-09T23:47:11.736Z,83.32
2019-05-09T23:49:14.023Z,82.09
2019-05-09T23:51:16.088Z,82.30
2019-05-09T23:53:30.762Z,82.30
2019-05-09T23:55:51.336Z,82.97
2019-05-09T23:58:11.655Z,82.39
